Japan Airlines Virtual Airport Information Service

Hiroshima Airport

ICAO: RJOA Country: Japan
Latitude: 34.4361 Longitude: 132.919
Latest Arrival : SCC8400 (RJOA-RJOA) Latest Departure : SCC8400 (RJOA-RJOA)


WX CaptureLIVE
Data provided by noaa.gov | Fetched at 15:57:19

METAR : RJOA 291300Z 32005KT 9999 FEW015 SCT035 BKN070 19/16 Q1009

TAF : RJOA 291109Z 2912/3018 04005KT 7000 -SHRA FEW003 SCT008 BKN015 TEMPO 2918/2922 4000 -SHRA BR BCFG FEW000 SCT005 BKN008 TEMPO 2922/3000 3000 SHRA BR BCFG FEW000 SCT003 BKN005 TEMPO 3000/3003 4000 -SHRA BR BCFG FEW000 SCT005 BKN008 TEMPO 3003/3012 3000 SHRA BR BCFG FEW000 SCT003 BKN005


Runway Data for RJOA
Data provided by openaviationdata.com

Runway ID Mag Var Hdg Length Elevation Surface ILS Freq ILS Id ILS Slope
10 -7 97° 9831 ft 1052 ft Asphalt 108.7 IHG 3
28 -7 277° 9831 ft 1052 ft Asphalt -- -- --

Hiroshima Airport, Japan
Use only for reference purposes



Not for navigational purposes.